Time;durP1;ratioP1;P1;durP2;ratioP2;P2;SDS_P1;SDS_P2;PMS_P1;PMS_P2;Temp;Humidity;BMP_temperature;BMP_pressure;BME280_temperature;BME280_humidity;BME280_pressure;Samples;Min_cycle;Max_cycle;Signal;HPM_P1;HPM_P2
2021/06/22 00:00:49;;;;;;;26.12;18.32;;;;;;;23.15;62.97;99793.75;1774764;78;25753;-71
2021/06/22 00:03:15;;;;;;;29.55;19.80;;;;;;;23.28;63.15;99814.62;1757926;78;27452;-71
2021/06/22 00:05:41;;;;;;;29.12;21.33;;;;;;;23.30;63.21;99815.82;1765111;78;25878;-71
2021/06/22 00:08:08;;;;;;;26.25;19.10;;;;;;;23.28;63.26;99815.14;1771100;78;25809;-72
2021/06/22 00:10:36;;;;;;;29.60;19.73;;;;;;;23.29;63.34;99816.33;1772379;78;25753;-71
2021/06/22 00:13:02;;;;;;;27.32;21.02;;;;;;;23.28;63.50;99813.77;1762188;78;25699;-71
2021/06/22 00:15:30;;;;;;;27.95;19.73;;;;;;;23.09;63.52;99782.63;1772246;78;27992;-72
2021/06/22 00:17:56;;;;;;;31.65;19.90;;;;;;;23.27;63.63;99816.16;1762993;78;25745;-71
2021/06/22 00:20:26;;;;;;;27.82;19.85;;;;;;;23.27;63.66;99820.27;1770057;79;26410;-71
2021/06/22 00:22:54;;;;;;;28.98;19.50;;;;;;;23.25;63.76;99812.73;1758615;78;25810;-71
2021/06/22 00:25:24;;;;;;;28.25;20.60;;;;;;;23.26;63.87;99814.45;1756188;78;25676;-71
2021/06/22 00:27:57;;;;;;;27.58;21.17;;;;;;;23.26;63.90;99815.30;1764769;78;28015;-72
2021/06/22 00:30:24;;;;;;;35.63;20.35;;;;;;;23.27;63.91;99816.16;1775134;78;25762;-72
2021/06/22 00:32:50;;;;;;;35.23;21.45;;;;;;;23.25;64.12;99823.67;1764951;78;26452;-72
2021/06/22 00:35:18;;;;;;;28.32;20.30;;;;;;;23.20;64.09;99829.64;1778276;78;25765;-71
2021/06/22 00:37:46;;;;;;;29.98;20.82;;;;;;;23.17;64.22;99821.78;1765719;79;25764;-71
2021/06/22 00:40:16;;;;;;;30.45;21.37;;;;;;;23.14;64.28;99818.02;1777029;78;27536;-71
2021/06/22 00:42:46;;;;;;;26.33;20.23;;;;;;;23.06;64.35;99807.05;1776344;78;26069;-71
2021/06/22 00:45:16;;;;;;;28.20;20.32;;;;;;;23.10;64.43;99812.53;1767317;78;25793;-71
2021/06/22 00:47:43;;;;;;;31.97;20.60;;;;;;;23.10;64.48;99815.27;1768587;80;25938;-71
2021/06/22 00:50:10;;;;;;;26.52;20.17;;;;;;;23.11;64.44;99821.08;1766324;78;25803;-72
2021/06/22 00:52:38;;;;;;;30.43;20.92;;;;;;;23.11;64.44;99821.08;1777814;78;28190;-72
2021/06/22 00:55:11;;;;;;;25.32;19.52;;;;;;;23.10;64.57;99820.73;1776587;78;26238;-72
2021/06/22 00:57:34;;;;;;;28.05;20.43;;;;;;;23.11;64.69;99824.33;1774354;78;25708;-71
2021/06/22 01:00:03;;;;;;;32.00;19.70;;;;;;;23.11;64.69;99822.45;1761875;78;25884;-71
2021/06/22 01:02:30;;;;;;;32.13;20.35;;;;;;;23.11;64.76;99818.86;1756558;79;25682;-71
2021/06/22 01:04:56;;;;;;;25.27;18.67;;;;;;;23.09;64.71;99814.06;1772750;79;27479;-72
2021/06/22 01:07:24;;;;;;;24.80;18.50;;;;;;;23.05;64.78;99820.38;1766289;78;26741;-72
2021/06/22 01:09:50;;;;;;;34.33;21.68;;;;;;;23.02;64.88;99813.88;1774875;78;26527;-72
2021/06/22 01:12:18;;;;;;;29.07;20.50;;;;;;;23.02;64.95;99823.95;1762381;78;25821;-71
2021/06/22 01:14:45;;;;;;;31.70;21.40;;;;;;;23.02;65.05;99818.48;1769072;78;25729;-72
2021/06/22 01:17:12;;;;;;;28.02;19.50;;;;;;;23.01;65.00;99819.52;1770738;78;27369;-72
2021/06/22 01:19:38;;;;;;;28.45;21.80;;;;;;;22.92;65.09;99821.36;1777700;79;25706;-72
2021/06/22 01:22:06;;;;;;;26.27;21.45;;;;;;;22.92;65.09;99821.36;1763302;78;25731;-72
2021/06/22 01:24:33;;;;;;;29.48;22.35;;;;;;;22.88;65.32;99830.40;1762669;78;25921;-72
2021/06/22 01:27:02;;;;;;;26.07;21.55;;;;;;;22.82;65.47;99826.96;1745806;78;26116;-72
2021/06/22 01:29:29;;;;;;;33.05;22.37;;;;;;;22.75;65.61;99825.02;1767479;78;27476;-72
2021/06/22 01:32:00;;;;;;;31.02;21.23;;;;;;;22.74;65.72;99826.04;1754694;78;25810;-71
2021/06/22 01:34:30;;;;;;;29.45;21.90;;;;;;;22.73;65.88;99831.16;1770881;78;25694;-72
2021/06/22 01:36:59;;;;;;;30.63;23.17;;;;;;;22.72;65.86;99837.64;1769085;78;26048;-72
2021/06/22 01:39:24;;;;;;;31.25;22.45;;;;;;;22.68;65.95;99837.97;1766733;78;25744;-72
2021/06/22 01:41:50;;;;;;;29.52;21.30;;;;;;;22.66;65.96;99847.34;1765138;78;25989;-72
2021/06/22 01:44:18;;;;;;;33.38;23.15;;;;;;;22.64;66.07;99856.22;1769144;78;25735;-72
2021/06/22 01:46:44;;;;;;;30.85;23.42;;;;;;;22.61;66.14;99860.12;1765412;79;25818;-72
2021/06/22 01:49:10;;;;;;;30.65;23.77;;;;;;;22.60;66.27;99848.00;1773479;78;25834;-72
2021/06/22 01:51:35;;;;;;;33.05;22.75;;;;;;;22.58;66.32;99854.98;1768953;78;25779;-72
2021/06/22 01:54:01;;;;;;;32.38;22.48;;;;;;;22.58;66.44;99862.33;1763517;78;29584;-72
2021/06/22 01:56:30;;;;;;;27.80;21.42;;;;;;;22.61;66.50;99864.73;1765555;78;25983;-72
2021/06/22 01:58:58;;;;;;;31.85;22.40;;;;;;;22.61;66.53;99852.44;1765437;78;25838;-72
2021/06/22 02:01:24;;;;;;;28.10;22.15;;;;;;;22.62;66.59;99844.08;1775597;78;26423;-72
2021/06/22 02:03:52;;;;;;;34.88;21.85;;;;;;;22.63;66.63;99843.58;1770726;78;26420;-72
2021/06/22 02:06:19;;;;;;;30.35;22.65;;;;;;;22.62;66.64;99846.81;1776823;78;27635;-72
2021/06/22 02:08:46;;;;;;;32.58;24.00;;;;;;;22.63;66.63;99850.41;1767014;78;25870;-72
2021/06/22 02:11:11;;;;;;;37.40;24.12;;;;;;;22.61;66.77;99850.56;1769090;78;25747;-72
2021/06/22 02:13:37;;;;;;;31.23;22.87;;;;;;;22.59;66.83;99853.97;1768782;78;27994;-72
2021/06/22 02:16:04;;;;;;;29.55;25.27;;;;;;;22.59;66.89;99853.11;1727054;80;25845;-72
2021/06/22 02:18:32;;;;;;;36.88;25.60;;;;;;;22.55;67.03;99848.48;1754605;80;28372;-72
2021/06/22 02:20:57;;;;;;;36.90;26.02;;;;;;;22.55;67.19;99860.78;1741914;80;27167;-71
2021/06/22 02:23:23;;;;;;;33.70;25.10;;;;;;;22.54;67.36;99860.94;1743658;80;25811;-72
2021/06/22 02:25:49;;;;;;;36.77;26.68;;;;;;;22.51;67.41;99872.19;1770272;79;25815;-72
2021/06/22 02:28:21;;;;;;;37.45;25.70;;;;;;;22.47;67.60;99878.98;1755426;79;26485;-71
2021/06/22 02:30:51;;;;;;;35.33;26.25;;;;;;;22.43;67.71;99889.38;1745565;80;27484;-71
2021/06/22 02:33:20;;;;;;;38.40;26.35;;;;;;;22.40;67.81;99895.67;1745622;79;25824;-72
2021/06/22 02:35:47;;;;;;;35.65;26.02;;;;;;;22.35;67.94;99906.56;1721574;80;25740;-71
2021/06/22 02:38:14;;;;;;;32.13;26.77;;;;;;;22.33;68.07;99906.38;1748324;79;25825;-71
2021/06/22 02:40:41;;;;;;;34.20;26.33;;;;;;;22.31;68.10;99910.63;1745181;80;25857;-71
2021/06/22 02:43:07;;;;;;;37.95;26.48;;;;;;;22.16;68.04;99897.20;1745633;80;27473;-72
2021/06/22 02:45:35;;;;;;;36.88;27.15;;;;;;;22.16;68.04;99897.20;1739564;80;26740;-71
2021/06/22 02:48:02;;;;;;;33.28;25.55;;;;;;;22.27;68.28;99920.16;1744562;80;26285;-71
2021/06/22 02:50:30;;;;;;;38.28;26.82;;;;;;;22.28;68.34;99931.93;1737848;79;25815;-71
2021/06/22 02:52:58;;;;;;;35.48;25.77;;;;;;;22.26;68.38;99931.23;1732489;79;25739;-71
2021/06/22 02:55:24;;;;;;;34.83;25.30;;;;;;;22.26;68.48;99938.06;1755730;79;27874;-71
2021/06/22 02:57:56;;;;;;;30.85;26.23;;;;;;;22.27;68.53;99939.77;1765266;79;25829;-71
2021/06/22 03:00:25;;;;;;;36.10;25.80;;;;;;;22.28;68.54;99946.95;1749825;79;25851;-71
2021/06/22 03:02:55;;;;;;;38.80;24.47;;;;;;;22.28;68.57;99947.80;1751926;79;25765;-72
2021/06/22 03:05:22;;;;;;;34.88;23.22;;;;;;;22.29;68.55;99948.16;1738471;79;25763;-71
2021/06/22 03:07:48;;;;;;;30.17;22.52;;;;;;;22.28;68.60;99947.80;1746399;80;28046;-71
2021/06/22 03:10:18;;;;;;;34.63;23.87;;;;;;;22.28;68.64;99949.67;1738316;79;25740;-71
2021/06/22 03:12:46;;;;;;;28.93;24.00;;;;;;;22.26;68.66;99958.03;1740506;80;26544;-71
2021/06/22 03:15:16;;;;;;;35.38;25.08;;;;;;;22.20;68.62;99945.52;1745308;79;25835;-71
2021/06/22 03:17:46;;;;;;;33.40;24.52;;;;;;;22.17;68.62;99960.84;1751582;79;25841;-72
2021/06/22 03:20:13;;;;;;;36.65;24.70;;;;;;;22.13;68.73;99955.35;1742982;79;27433;-72
2021/06/22 03:22:43;;;;;;;31.90;23.87;;;;;;;22.11;68.75;99952.78;1747545;79;25819;-72
2021/06/22 03:25:13;;;;;;;32.35;24.43;;;;;;;22.11;68.86;99947.32;1755808;79;25707;-71
2021/06/22 03:27:40;;;;;;;37.27;25.77;;;;;;;22.10;68.87;99951.06;1753181;79;26117;-72
2021/06/22 03:30:10;;;;;;;36.25;27.07;;;;;;;22.08;68.95;99953.09;1741248;79;25807;-71
2021/06/22 03:32:37;;;;;;;41.18;27.27;;;;;;;22.07;68.99;99951.38;1737839;79;27474;-71
2021/06/22 03:35:09;;;;;;;40.52;28.00;;;;;;;22.07;69.01;99951.38;1715145;79;25875;-72
2021/06/22 03:37:36;;;;;;;38.48;28.85;;;;;;;22.07;69.05;99951.38;1735482;79;25822;-71
2021/06/22 03:40:05;;;;;;;40.40;29.10;;;;;;;22.06;69.12;99948.30;1754202;79;25775;-71
2021/06/22 03:42:34;;;;;;;37.20;28.12;;;;;;;22.07;69.18;99945.91;1750039;79;25766;-72
2021/06/22 03:45:08;;;;;;;45.98;30.08;;;;;;;22.07;69.21;99948.64;1741828;79;27410;-72
2021/06/22 03:47:36;;;;;;;35.68;28.40;;;;;;;22.10;69.28;99946.11;1744812;79;25720;-71
2021/06/22 03:50:05;;;;;;;47.35;31.35;;;;;;;22.13;69.31;99949.38;1738790;79;25672;-71
2021/06/22 03:52:31;;;;;;;39.23;29.40;;;;;;;22.19;69.37;99946.53;1745514;79;25717;-71
2021/06/22 03:54:58;;;;;;;42.33;30.85;;;;;;;22.24;69.43;99951.01;1718775;80;25791;-71
2021/06/22 03:57:24;;;;;;;48.55;31.37;;;;;;;22.31;69.42;99958.41;1736977;79;29120;-71
2021/06/22 03:59:55;;;;;;;44.65;30.88;;;;;;;22.39;69.47;99963.08;1766388;79;27244;-71
2021/06/22 04:02:21;;;;;;;47.83;30.72;;;;;;;22.44;69.46;99962.60;1743496;80;25835;-72
2021/06/22 04:04:48;;;;;;;38.80;28.85;;;;;;;22.48;69.45;99955.30;1740871;80;26427;-71
2021/06/22 04:07:14;;;;;;;44.20;28.85;;;;;;;22.56;69.44;99948.53;1757615;79;25732;-71
2021/06/22 04:09:41;;;;;;;42.30;29.37;;;;;;;22.58;69.38;99944.27;1769578;79;27331;-71
2021/06/22 04:12:11;;;;;;;40.00;29.07;;;;;;;22.60;69.42;99939.50;1735419;80;26465;-72
2021/06/22 04:14:38;;;;;;;38.00;31.27;;;;;;;22.60;69.51;99938.99;1745506;80;25747;-71
2021/06/22 04:17:04;;;;;;;46.35;30.37;;;;;;;22.58;69.71;99939.66;1739669;80;26759;-72
2021/06/22 04:19:30;;;;;;;42.83;30.40;;;;;;;22.61;70.11;99933.02;1731761;79;25759;-71
2021/06/22 04:21:57;;;;;;;36.88;30.15;;;;;;;22.61;70.11;99933.02;1732733;80;27448;-72
2021/06/22 04:24:24;;;;;;;39.63;29.92;;;;;;;22.63;70.02;99936.45;1755002;79;26135;-72
2021/06/22 04:26:49;;;;;;;39.00;29.67;;;;;;;22.63;70.94;99940.55;1745702;80;25684;-72
2021/06/22 04:29:16;;;;;;;45.95;30.00;;;;;;;22.63;70.94;99940.55;1735395;80;25750;-71
2021/06/22 04:31:42;;;;;;;42.20;30.25;;;;;;;22.54;70.49;99914.20;1742366;80;25778;-71
2021/06/22 04:34:08;;;;;;;51.65;29.92;;;;;;;22.71;70.59;99933.77;1759500;79;27575;-70
2021/06/22 04:36:34;;;;;;;51.25;30.57;;;;;;;22.72;70.68;99941.45;1771814;79;27231;-71
2021/06/22 04:39:01;;;;;;;43.58;28.83;;;;;;;22.72;70.93;99947.78;1744162;80;26558;-71
2021/06/22 04:41:32;;;;;;;36.55;30.23;;;;;;;22.73;71.13;99944.53;1751486;80;26479;-71
2021/06/22 04:43:59;;;;;;;;;;;;;;;22.70;71.51;99948.45;1744177;79;25726;-71
2021/06/22 04:46:25;;;;;;;47.62;31.37;;;;;;;22.70;71.31;99941.62;1740552;80;27453;-71
2021/06/22 04:48:51;;;;;;;48.05;29.52;;;;;;;22.70;71.25;99946.22;1736385;80;25759;-71
2021/06/22 04:51:18;;;;;;;41.40;31.35;;;;;;;22.78;71.21;99946.27;1733211;80;25744;-70
2021/06/22 04:53:46;;;;;;;42.23;32.63;;;;;;;22.63;70.86;99937.31;1737511;80;25764;-72
2021/06/22 04:56:15;;;;;;;35.13;30.52;;;;;;;22.63;70.86;99937.31;1740082;80;25717;-71
2021/06/22 04:58:44;;;;;;;44.50;30.45;;;;;;;22.74;71.38;99951.72;1730091;80;27517;-71
2021/06/22 05:01:11;;;;;;;42.30;30.15;;;;;;;22.74;71.38;99951.72;1738354;80;26737;-72
2021/06/22 05:03:39;;;;;;;51.13;30.82;;;;;;;22.80;71.24;99946.49;1764910;78;25701;-72
2021/06/22 05:06:08;;;;;;;59.85;31.85;;;;;;;22.86;71.18;99948.58;1766113;79;25805;-71
2021/06/22 05:08:36;;;;;;;46.55;31.25;;;;;;;22.92;71.15;99957.50;1755362;79;25349;-70
2021/06/22 05:11:02;;;;;;;41.13;30.08;;;;;;;22.99;71.26;99961.30;1781592;78;27437;-72
2021/06/22 05:13:30;;;;;;;41.92;30.62;;;;;;;23.02;71.05;99957.89;1779217;78;25842;-72
2021/06/22 05:16:00;;;;;;;36.42;26.37;;;;;;;23.04;70.96;99958.07;1770066;78;25848;-73
2021/06/22 05:18:28;;;;;;;46.73;29.20;;;;;;;22.98;70.61;99934.13;1746103;79;26445;-72
2021/06/22 05:20:54;;;;;;;39.23;27.82;;;;;;;23.14;70.67;99959.31;1762778;78;26398;-72
2021/06/22 05:23:22;;;;;;;35.17;25.62;;;;;;;23.25;70.61;99954.92;1774018;78;27416;-73
2021/06/22 05:25:49;;;;;;;36.75;26.30;;;;;;;23.36;70.40;99952.40;1767182;78;25765;-73
2021/06/22 05:28:16;;;;;;;38.13;24.72;;;;;;;23.47;70.22;99950.19;1775225;78;26307;-72
2021/06/22 05:30:44;;;;;;;43.05;25.32;;;;;;;23.58;70.16;99958.13;1769021;78;25957;-72
2021/06/22 05:33:10;;;;;;;47.58;25.20;;;;;;;23.62;69.69;99955.39;1773635;78;25744;-73
2021/06/22 05:35:38;;;;;;;39.45;25.08;;;;;;;23.63;69.72;99961.21;1782184;78;27378;-73
2021/06/22 05:38:04;;;;;;;39.00;25.48;;;;;;;23.66;69.54;99962.75;1764715;78;26727;-75
2021/06/22 05:40:29;;;;;;;37.25;24.37;;;;;;;23.73;69.48;99966.54;1769867;78;25824;-74
2021/06/22 05:42:57;;;;;;;34.05;23.65;;;;;;;23.82;69.20;99970.15;1774046;78;25905;-74
2021/06/22 05:45:22;;;;;;;32.00;24.75;;;;;;;23.82;69.04;99972.89;1771886;78;25754;-74
2021/06/22 05:47:49;;;;;;;33.48;26.12;;;;;;;23.86;68.94;99979.22;1778715;78;27875;-73
2021/06/22 05:50:16;;;;;;;34.78;25.97;;;;;;;23.87;68.83;99986.41;1772939;78;42977;-74
2021/06/22 05:52:46;;;;;;;38.95;25.77;;;;;;;23.89;68.67;99974.78;1775405;78;25838;-74
2021/06/22 05:55:17;;;;;;;43.23;25.43;;;;;;;23.95;68.60;99979.58;1780086;78;25794;-74
2021/06/22 05:57:47;;;;;;;34.15;23.22;;;;;;;24.02;68.49;99975.66;1766510;78;25725;-74
2021/06/22 06:00:17;;;;;;;31.23;24.20;;;;;;;24.10;68.28;99974.30;1778055;78;28143;-73
2021/06/22 06:02:44;;;;;;;30.85;22.93;;;;;;;24.14;67.84;99980.30;1784299;78;25725;-73
2021/06/22 06:05:13;;;;;;;63.80;22.90;;;;;;;24.12;67.90;99974.98;1768673;78;25669;-71
2021/06/22 06:07:39;;;;;;;37.65;23.32;;;;;;;24.21;67.79;99967.12;1766278;78;26394;-74
2021/06/22 06:10:10;;;;;;;43.75;24.40;;;;;;;24.27;67.58;99970.58;1774334;78;25768;-71
2021/06/22 06:12:36;;;;;;;45.08;24.02;;;;;;;24.31;67.45;99972.47;1767037;78;25754;-70
2021/06/22 06:15:06;;;;;;;48.28;22.30;;;;;;;24.34;67.20;99975.38;1761646;79;25648;-71
2021/06/22 06:17:33;;;;;;;40.63;21.62;;;;;;;24.37;67.14;99973.66;1761072;78;26530;-69
2021/06/22 06:20:00;;;;;;;40.48;22.35;;;;;;;24.42;67.02;99974.86;1757944;78;26088;-70
2021/06/22 06:22:27;;;;;;;37.78;22.30;;;;;;;24.50;66.90;99974.86;1770771;78;25676;-71
2021/06/22 06:24:58;;;;;;;41.40;23.42;;;;;;;24.56;66.69;99970.57;1767756;78;27493;-69
2021/06/22 06:27:35;;;;;;;35.78;22.25;;;;;;;24.60;66.56;99972.79;1757699;78;26202;-70
2021/06/22 06:29:58;;;;;;;36.73;21.60;;;;;;;24.68;66.45;99965.59;1756519;78;25772;-71
2021/06/22 06:32:23;;;;;;;33.98;21.30;;;;;;;24.78;66.32;99968.48;1762414;79;25889;-71
2021/06/22 06:34:51;;;;;;;43.08;20.85;;;;;;;24.87;65.97;99963.84;1768284;78;26593;-74
2021/06/22 06:37:19;;;;;;;32.45;21.87;;;;;;;24.92;65.81;99972.39;1765839;78;27465;-71
2021/06/22 06:39:45;;;;;;;46.60;21.62;;;;;;;24.93;65.41;99972.22;1756077;78;25798;-74
2021/06/22 06:42:13;;;;;;;37.63;21.77;;;;;;;24.99;65.54;99972.58;1767049;78;25927;-74
2021/06/22 06:44:38;;;;;;;32.75;20.90;;;;;;;25.07;65.07;99982.16;1764596;78;26382;-71
2021/06/22 06:47:06;;;;;;;31.73;21.62;;;;;;;25.08;64.98;99983.35;1764902;78;25736;-73
2021/06/22 06:49:35;;;;;;;33.33;20.90;;;;;;;25.12;64.49;99979.74;1772932;78;25687;-73
2021/06/22 06:52:02;;;;;;;41.08;20.90;;;;;;;25.15;64.46;99983.50;1763929;78;25631;-59
2021/06/22 06:54:27;;;;;;;27.90;19.70;;;;;;;25.23;64.55;99973.88;1765275;78;25738;-59
2021/06/22 06:56:57;;;;;;;34.63;20.35;;;;;;;25.39;64.36;99973.81;1772354;78;26095;-59
2021/06/22 06:59:23;;;;;;;28.42;19.45;;;;;;;25.48;64.10;99975.48;1770735;78;25738;-59
2021/06/22 07:01:51;;;;;;;31.75;17.85;;;;;;;25.55;63.98;99981.11;1779963;78;27306;-59
2021/06/22 07:04:17;;;;;;;32.20;20.15;;;;;;;25.61;63.66;99980.40;1776799;78;25782;-59
2021/06/22 07:06:43;;;;;;;26.42;17.55;;;;;;;25.61;63.51;99973.53;1766194;78;25791;-59
2021/06/22 07:09:09;;;;;;;24.32;17.40;;;;;;;25.68;63.22;99979.20;1789655;78;26351;-58
2021/06/22 07:11:38;;;;;;;23.22;16.70;;;;;;;25.73;62.92;99983.11;1767112;78;25754;-59
2021/06/22 07:14:04;;;;;;;42.30;17.73;;;;;;;25.83;62.78;99989.75;1772207;78;27340;-59
2021/06/22 07:16:33;;;;;;;30.82;16.37;;;;;;;25.86;62.29;99990.23;1784799;78;26097;-59
2021/06/22 07:18:59;;;;;;;25.25;17.00;;;;;;;25.91;62.30;99996.56;1776269;78;26511;-59
2021/06/22 07:21:25;;;;;;;32.30;17.40;;;;;;;26.02;62.02;99998.01;1774522;78;27196;-59
2021/06/22 07:23:54;;;;;;;36.40;17.55;;;;;;;26.09;61.89;99999.84;1784327;78;25666;-59
2021/06/22 07:26:20;;;;;;;30.48;17.20;;;;;;;26.17;61.86;99995.66;1781971;78;27390;-59
2021/06/22 07:28:46;;;;;;;27.77;15.00;;;;;;;26.30;61.67;100001.07;1784513;78;25796;-59
2021/06/22 07:31:12;;;;;;;30.20;16.97;;;;;;;26.38;61.32;100014.78;1779532;78;25237;-59
2021/06/22 07:33:39;;;;;;;23.35;16.35;;;;;;;26.41;61.24;100017.16;1768314;78;26008;-59
2021/06/22 07:36:09;;;;;;;29.42;16.05;;;;;;;26.46;60.98;100010.59;1762782;78;25699;-59
2021/06/22 07:38:36;;;;;;;31.00;16.10;;;;;;;26.54;60.80;100002.28;1783583;78;27386;-59
2021/06/22 07:41:05;;;;;;;39.78;16.52;;;;;;;26.54;60.29;100013.27;1764002;78;25706;-59
2021/06/22 07:43:31;;;;;;;24.23;15.43;;;;;;;26.56;60.07;100019.44;1765913;78;25735;-60
2021/06/22 07:45:58;;;;;;;28.17;15.65;;;;;;;26.67;60.06;100015.39;1781584;78;25786;-59
2021/06/22 07:48:24;;;;;;;20.10;14.25;;;;;;;26.78;59.84;100018.55;1772667;78;25730;-61
2021/06/22 07:50:51;;;;;;;21.93;14.93;;;;;;;26.94;59.64;100023.56;1764310;78;29549;-59
2021/06/22 07:53:19;;;;;;;28.55;13.53;;;;;;;27.06;59.62;100022.95;1774779;78;25707;-60
2021/06/22 07:55:45;;;;;;;30.37;13.75;;;;;;;27.22;59.31;100023.30;1783517;78;25769;-59
2021/06/22 07:58:13;;;;;;;20.08;14.28;;;;;;;27.18;58.38;100032.12;1765259;78;26346;-60
2021/06/22 08:00:44;;;;;;;16.02;14.03;;;;;;;27.12;58.43;100038.70;1773902;78;25663;-59
2021/06/22 08:03:16;;;;;;;27.27;13.60;;;;;;;27.14;58.25;100043.50;1775358;78;27399;-59
2021/06/22 08:05:45;;;;;;;22.25;14.35;;;;;;;27.27;58.18;100049.73;1761605;78;26157;-59
2021/06/22 08:08:14;;;;;;;37.42;14.80;;;;;;;27.19;57.35;100042.94;1767464;79;26336;-59
2021/06/22 08:10:40;;;;;;;24.40;15.70;;;;;;;27.15;57.50;100051.23;1740989;79;26492;-59
2021/06/22 08:13:08;;;;;;;25.92;13.85;;;;;;;27.25;57.73;100062.82;1736725;80;26618;-57
2021/06/22 08:15:37;;;;;;;21.57;13.88;;;;;;;27.29;57.11;100065.53;1752405;79;27012;-57
2021/06/22 08:18:05;;;;;;;26.60;13.83;;;;;;;27.26;57.13;100064.53;1756589;79;26356;-59
2021/06/22 08:20:33;;;;;;;25.75;16.12;;;;;;;27.36;57.29;100065.11;1746791;80;25763;-58
2021/06/22 08:22:59;;;;;;;20.55;14.23;;;;;;;27.56;57.22;100068.67;1734333;80;25749;-58
2021/06/22 08:25:29;;;;;;;20.95;13.48;;;;;;;27.74;57.25;100072.78;1746151;80;26248;-58
2021/06/22 08:27:56;;;;;;;23.77;14.40;;;;;;;27.91;57.17;100064.30;1741066;80;27361;-60
2021/06/22 08:30:27;;;;;;;21.55;14.55;;;;;;;28.00;56.64;100060.39;1739786;79;25748;-59
2021/06/22 08:32:55;;;;;;;19.42;13.35;;;;;;;27.99;56.42;100052.66;1753050;79;25753;-59
2021/06/22 08:35:22;;;;;;;22.77;14.10;;;;;;;28.06;56.19;100054.96;1739807;80;26537;-58
2021/06/22 08:37:48;;;;;;;21.42;14.68;;;;;;;28.11;56.04;100060.74;1722693;81;25815;-58
2021/06/22 08:40:14;;;;;;;22.25;14.75;;;;;;;28.20;56.02;100061.48;1737409;79;27337;-58
2021/06/22 08:42:41;;;;;;;21.48;14.35;;;;;;;28.31;55.76;100061.53;1732542;80;25746;-58
2021/06/22 08:45:12;;;;;;;23.45;14.58;;;;;;;28.30;55.31;100059.82;1738933;80;25768;-58
2021/06/22 08:47:38;;;;;;;27.98;13.68;;;;;;;28.36;55.29;100064.55;1738009;80;26291;-58
2021/06/22 08:50:07;;;;;;;19.32;14.30;;;;;;;28.53;55.32;100066.00;1739452;79;25735;-58
2021/06/22 08:52:35;;;;;;;26.12;15.58;;;;;;;28.59;54.36;100063.84;1746411;80;27407;-58
2021/06/22 08:55:05;;;;;;;23.52;14.13;;;;;;;28.49;54.65;100071.58;1745762;80;25668;-58
2021/06/22 08:57:33;;;;;;;19.50;15.05;;;;;;;28.54;54.41;100077.36;1735281;79;26335;-58
2021/06/22 09:00:01;;;;;;;25.32;14.50;;;;;;;28.45;54.50;100073.03;1745147;79;25786;-58
2021/06/22 09:02:30;;;;;;;27.90;14.58;;;;;;;28.31;54.14;100062.91;1753583;79;25735;-59
2021/06/22 09:04:58;;;;;;;26.07;13.60;;;;;;;28.24;53.99;100070.25;1745116;79;28145;-59
2021/06/22 09:07:48;;;;;;;27.07;13.45;;;;;;;28.17;54.21;100074.27;1742025;80;25975;-60
2021/06/22 09:10:30;;;;;;;21.30;12.55;;;;;;;28.10;53.84;100076.09;1754934;79;26517;-60
2021/06/22 09:13:00;;;;;;;20.43;14.53;;;;;;;28.00;54.05;100083.81;1746040;79;26460;-60
2021/06/22 09:15:32;;;;;;;25.17;14.23;;;;;;;27.96;54.07;100080.59;1728603;80;25855;-64
2021/06/22 09:17:59;;;;;;;24.30;15.72;;;;;;;28.00;54.01;100077.78;1743789;79;27693;-60
2021/06/22 09:20:40;;;;;;;27.40;15.68;;;;;;;28.09;54.27;100075.77;1751074;79;25782;-60
2021/06/22 09:23:21;;;;;;;25.48;15.48;;;;;;;28.21;54.08;100074.21;1769035;79;25829;-60
2021/06/22 09:25:50;;;;;;;40.28;17.00;;;;;;;28.21;54.03;100070.08;1749527;79;25764;-60
2021/06/22 09:28:24;;;;;;;36.38;16.23;;;;;;;28.12;53.94;100076.75;1763987;79;25697;-61
2021/06/22 09:31:00;;;;;;;20.75;15.68;;;;;;;28.01;54.13;100074.50;1759192;79;27368;-59
2021/06/22 09:33:40;;;;;;;21.50;14.28;;;;;;;28.00;54.14;100076.40;1749945;79;25806;-60
2021/06/22 09:36:19;;;;;;;21.95;14.43;;;;;;;28.08;54.02;100076.28;1741262;79;26278;-60
2021/06/22 09:38:55;;;;;;;28.67;15.30;;;;;;;28.05;54.07;100080.80;1746531;79;25818;-60
2021/06/22 09:41:30;;;;;;;24.35;14.90;;;;;;;28.07;54.20;100086.12;1745611;80;25703;-60
2021/06/22 09:44:10;;;;;;;19.10;14.30;;;;;;;28.08;53.95;100072.67;1751771;79;27476;-59
2021/06/22 09:46:40;;;;;;;29.27;14.80;;;;;;;28.04;53.82;100077.72;1735603;80;25861;-59
2021/06/22 09:49:21;;;;;;;;;;;;;;;28.00;53.90;100077.78;1757357;80;25734;-59
2021/06/22 09:52:19;;;;;;;29.77;14.68;;;;;;;27.91;53.81;100073.42;1754828;79;26356;-60
2021/06/22 09:54:33;;;;;;;28.98;15.23;;;;;;;27.85;54.06;100071.44;1736773;81;25814;-60
2021/06/22 09:57:12;;;;;;;23.90;14.73;;;;;;;27.90;54.14;100080.50;1742103;80;27579;-61
2021/06/22 09:59:54;;;;;;;24.50;14.90;;;;;;;27.89;53.99;100063.64;1742633;80;26026;-59
2021/06/22 10:02:27;;;;;;;35.52;14.80;;;;;;;27.82;54.07;100056.67;1737041;81;26309;-61
2021/06/22 10:05:00;;;;;;;24.87;14.18;;;;;;;27.81;54.12;100052.20;1741487;81;25819;-62
2021/06/22 10:07:29;;;;;;;23.30;14.63;;;;;;;27.80;54.14;100040.86;1744501;80;25707;-61
2021/06/22 10:09:58;;;;;;;24.37;13.85;;;;;;;27.75;54.17;100050.22;1769791;78;27454;-59
2021/06/22 10:12:31;;;;;;;29.63;16.05;;;;;;;27.78;54.31;100051.22;1751361;80;27034;-59
2021/06/22 10:15:00;;;;;;;26.10;16.05;;;;;;;27.79;54.28;100070.30;1737332;79;26428;-68
2021/06/22 10:17:30;;;;;;;23.10;14.70;;;;;;;27.79;54.22;100068.07;1762593;81;25768;-69
2021/06/22 10:20:02;;;;;;;19.85;14.43;;;;;;;27.76;54.35;100074.81;1754296;78;25803;-59
2021/06/22 10:22:32;;;;;;;24.30;16.75;;;;;;;27.77;54.33;100081.18;1765029;79;28150;-59
2021/06/22 10:25:00;;;;;;;27.35;16.20;;;;;;;27.72;54.37;100081.75;1733664;80;25683;-60
2021/06/22 10:27:29;;;;;;;20.08;15.53;;;;;;;27.66;54.55;100081.66;1738293;80;25737;-60
2021/06/22 10:30:02;;;;;;;20.32;16.05;;;;;;;27.68;54.68;100079.57;1739260;80;26057;-60
2021/06/22 10:32:30;;;;;;;24.40;16.37;;;;;;;27.69;54.63;100078.53;1733681;80;25759;-59
2021/06/22 10:35:10;;;;;;;24.87;14.75;;;;;;;27.70;54.76;100070.59;1743704;80;27427;-60
2021/06/22 10:38:00;;;;;;;27.52;15.65;;;;;;;27.74;54.68;100071.92;1746904;80;25766;-60
2021/06/22 10:40:29;;;;;;;25.90;16.42;;;;;;;27.83;54.69;100059.75;1739795;79;32495;-60
2021/06/22 10:42:59;;;;;;;25.08;15.72;;;;;;;28.01;54.67;100049.70;1745148;79;26163;-60
2021/06/22 10:45:26;;;;;;;23.52;15.55;;;;;;;28.12;54.69;100054.19;1770612;78;25845;-59
2021/06/22 10:47:56;;;;;;;26.00;15.35;;;;;;;28.31;54.50;100062.91;1738329;80;25849;-59
2021/06/22 10:50:30;;;;;;;21.45;15.08;;;;;;;28.47;54.34;100061.80;1779206;78;25857;-59
2021/06/22 10:53:04;;;;;;;22.87;14.20;;;;;;;28.49;54.00;100069.35;1777548;78;25810;-59
2021/06/22 10:55:42;;;;;;;28.75;16.27;;;;;;;28.42;53.97;100059.63;1742039;80;26126;-65
2021/06/22 10:58:13;;;;;;;23.90;15.20;;;;;;;28.29;53.82;100062.25;1729539;80;25794;-65
2021/06/22 11:00:49;;;;;;;25.62;15.78;;;;;;;28.17;53.89;100058.26;1739717;80;27550;-65
2021/06/22 11:03:32;;;;;;;45.40;16.95;;;;;;;27.98;53.84;100035.80;1759394;79;25656;-65
2021/06/22 11:06:16;;;;;;;21.27;13.80;;;;;;;27.84;54.10;100048.22;1747707;79;25824;-65
2021/06/22 11:08:43;;;;;;;23.47;16.05;;;;;;;27.72;54.21;100054.73;1735891;80;25751;-65
2021/06/22 11:11:15;;;;;;;21.02;16.12;;;;;;;27.62;54.36;100048.67;1753204;80;25652;-65
2021/06/22 11:13:51;;;;;;;25.25;14.47;;;;;;;27.52;54.41;100035.69;1746704;80;26876;-65
2021/06/22 11:16:22;;;;;;;22.25;16.02;;;;;;;27.40;54.58;100046.31;1741157;80;25926;-65
2021/06/22 11:19:02;;;;;;;23.35;14.95;;;;;;;27.33;54.66;100057.23;1744826;80;25748;-65
2021/06/22 11:21:34;;;;;;;15.10;6.08;;;;;;;27.25;54.95;100090.34;1734993;80;25756;-66